Time;durP1;ratioP1;P1;durP2;ratioP2;P2;SDS_P1;SDS_P2;PMS_P1;PMS_P2;Temp;Humidity;BMP_temperature;BMP_pressure;BME280_temperature;BME280_humidity;BME280_pressure;Samples;Min_cycle;Max_cycle;Signal;HPM_P1;HPM_P2
2023/12/04 00:00:36;;;;;;;34.80;19.50;;;;;;;;;;5014470;28;20105;-63
2023/12/04 00:03:02;;;;;;;31.77;18.55;;;;;;;;;;5014402;28;20476;-63
2023/12/04 00:05:27;;;;;;;33.80;19.58;;;;;;;;;;5014598;28;20469;-63
2023/12/04 00:07:53;;;;;;;35.00;19.33;;;;;;;;;;5014482;28;20034;-63
2023/12/04 00:10:18;;;;;;;31.60;17.90;;;;;;;;;;5014936;28;20018;-63
2023/12/04 00:12:43;;;;;;;30.08;16.70;;;;;;;;;;5014244;28;20491;-63
2023/12/04 00:15:09;;;;;;;27.20;16.63;;;;;;;;;;5014538;28;20034;-63
2023/12/04 00:17:39;;;;;;;31.02;16.75;;;;;;;;;;4996778;28;20041;-64
2023/12/04 00:20:05;;;;;;;27.65;17.27;;;;;;;;;;4996965;28;20034;-64
2023/12/04 00:22:31;;;;;;;31.27;17.33;;;;;;;;;;5014694;28;20160;-64
2023/12/04 00:24:57;;;;;;;29.55;17.10;;;;;;;;;;5014111;28;20060;-59
2023/12/04 00:27:26;;;;;;;30.83;16.33;;;;;;;;;;5021244;23;20058;-59
2023/12/04 00:29:52;;;;;;;27.33;16.13;;;;;;;;;;5013832;28;20116;-59
2023/12/04 00:32:17;;;;;;;28.58;16.73;;;;;;;;;;5014083;28;20587;-59
2023/12/04 00:34:43;;;;;;;32.67;17.63;;;;;;;;;;4996409;28;20014;-59
2023/12/04 00:37:08;;;;;;;31.27;18.20;;;;;;;;;;5013244;28;20396;-59
2023/12/04 00:39:34;;;;;;;30.52;17.67;;;;;;;;;;5014715;28;20369;-59
2023/12/04 00:41:59;;;;;;;32.72;17.48;;;;;;;;;;5014236;28;20181;-59
2023/12/04 00:44:24;;;;;;;33.33;17.70;;;;;;;;;;4996387;28;20034;-59
2023/12/04 00:46:51;;;;;;;32.60;17.52;;;;;;;;;;5014177;28;20092;-59
2023/12/04 00:49:16;;;;;;;29.20;17.20;;;;;;;;;;5014277;28;20010;-59
2023/12/04 00:51:42;;;;;;;31.77;18.08;;;;;;;;;;5014023;28;20032;-59
2023/12/04 00:54:07;;;;;;;34.25;18.00;;;;;;;;;;5012614;28;20030;-59
2023/12/04 00:56:33;;;;;;;33.10;18.52;;;;;;;;;;4997014;28;20036;-59
2023/12/04 00:58:58;;;;;;;29.55;17.15;;;;;;;;;;5013970;28;20038;-59
2023/12/04 01:01:24;;;;;;;29.30;16.92;;;;;;;;;;5013700;28;20056;-58
2023/12/04 01:03:49;;;;;;;31.05;17.38;;;;;;;;;;5013840;28;20038;-58
2023/12/04 01:06:22;;;;;;;33.08;17.63;;;;;;;;;;5013568;28;20366;-58
2023/12/04 01:08:47;;;;;;;29.10;16.80;;;;;;;;;;5013912;28;20029;-58
2023/12/04 01:11:14;;;;;;;35.10;18.98;;;;;;;;;;5013920;28;20048;-59
2023/12/04 01:13:39;;;;;;;31.27;16.77;;;;;;;;;;5014313;28;20061;-59
2023/12/04 01:16:05;;;;;;;33.05;17.02;;;;;;;;;;5014187;28;20080;-59
2023/12/04 01:18:30;;;;;;;32.22;17.50;;;;;;;;;;5014049;28;20033;-59
2023/12/04 01:20:56;;;;;;;22.92;13.48;;;;;;;;;;5013983;28;20036;-59
2023/12/04 01:23:21;;;;;;;24.05;13.88;;;;;;;;;;5013740;28;20464;-59
2023/12/04 01:25:47;;;;;;;24.95;14.15;;;;;;;;;;5013446;28;20396;-59
2023/12/04 01:28:13;;;;;;;28.85;15.23;;;;;;;;;;5012218;28;20372;-59
2023/12/04 01:30:38;;;;;;;29.60;17.13;;;;;;;;;;5013781;28;20092;-59
2023/12/04 01:33:04;;;;;;;26.45;14.48;;;;;;;;;;5012369;28;20421;-59
2023/12/04 01:35:29;;;;;;;28.48;16.98;;;;;;;;;;5013615;28;20030;-59
2023/12/04 01:37:54;;;;;;;30.25;16.15;;;;;;;;;;5013481;28;20109;-58
2023/12/04 01:40:20;;;;;;;28.50;16.30;;;;;;;;;;5013726;28;20076;-58
2023/12/04 01:42:45;;;;;;;28.50;16.27;;;;;;;;;;4996522;28;20033;-59
2023/12/04 01:45:11;;;;;;;29.10;16.73;;;;;;;;;;5013537;28;20026;-59
2023/12/04 01:47:36;;;;;;;29.02;17.27;;;;;;;;;;5013826;28;20034;-59
2023/12/04 01:50:02;;;;;;;30.77;16.70;;;;;;;;;;5016718;28;20023;-59
2023/12/04 01:52:27;;;;;;;28.63;16.65;;;;;;;;;;5017014;28;20495;-59
2023/12/04 01:54:53;;;;;;;26.88;16.77;;;;;;;;;;4999722;28;20037;-59
2023/12/04 01:57:18;;;;;;;28.50;16.98;;;;;;;;;;5017021;28;20476;-59
2023/12/04 01:59:45;;;;;;;29.75;17.65;;;;;;;;;;5016931;28;20041;-59
2023/12/04 02:02:11;;;;;;;30.77;17.33;;;;;;;;;;5016690;28;20550;-59
2023/12/04 02:04:38;;;;;;;30.98;17.75;;;;;;;;;;5016806;28;20042;-59
2023/12/04 02:07:04;;;;;;;26.38;16.45;;;;;;;;;;5016588;28;20044;-59
2023/12/04 02:09:30;;;;;;;34.00;19.90;;;;;;;;;;5016625;28;20018;-59
2023/12/04 02:11:56;;;;;;;39.42;22.08;;;;;;;;;;5017175;28;20373;-59
2023/12/04 02:14:22;;;;;;;42.47;22.77;;;;;;;;;;5016379;28;20387;-59
2023/12/04 02:16:47;;;;;;;39.47;21.08;;;;;;;;;;5016392;28;20097;-59
2023/12/04 02:19:13;;;;;;;39.45;21.75;;;;;;;;;;4998743;28;20026;-59
2023/12/04 02:21:38;;;;;;;45.50;23.90;;;;;;;;;;5015019;28;20033;-59
2023/12/04 02:24:04;;;;;;;48.47;25.40;;;;;;;;;;5016251;28;20057;-59
2023/12/04 02:26:33;;;;;;;48.05;24.92;;;;;;;;;;5016649;28;20058;-59
2023/12/04 02:29:00;;;;;;;40.30;22.90;;;;;;;;;;5016171;28;20060;-59
2023/12/04 02:31:26;;;;;;;42.35;22.88;;;;;;;;;;4998653;28;20030;-59
2023/12/04 02:33:52;;;;;;;42.40;22.60;;;;;;;;;;4998453;28;20372;-58
2023/12/04 02:36:19;;;;;;;36.28;20.63;;;;;;;;;;5016030;28;20038;-59
2023/12/04 02:38:45;;;;;;;32.88;20.38;;;;;;;;;;5015948;28;20388;-58
2023/12/04 02:41:10;;;;;;;34.90;19.30;;;;;;;;;;5016221;28;20036;-58
2023/12/04 02:43:35;;;;;;;29.27;18.58;;;;;;;;;;5016426;28;20038;-59
2023/12/04 02:46:01;;;;;;;31.33;18.30;;;;;;;;;;4998243;28;20029;-58
2023/12/04 02:48:26;;;;;;;28.60;17.42;;;;;;;;;;4998421;28;20107;-60
2023/12/04 02:50:52;;;;;;;30.55;17.75;;;;;;;;;;4998533;28;20041;-59
2023/12/04 02:53:17;;;;;;;31.50;18.70;;;;;;;;;;5015943;28;20026;-59
2023/12/04 02:55:42;;;;;;;31.25;18.63;;;;;;;;;;5016086;28;20041;-59
2023/12/04 02:58:08;;;;;;;34.90;20.23;;;;;;;;;;5015301;28;20033;-59
2023/12/04 03:00:33;;;;;;;36.60;20.20;;;;;;;;;;5014917;28;20025;-59
2023/12/04 03:02:59;;;;;;;32.20;18.88;;;;;;;;;;5015959;28;20058;-59
2023/12/04 03:05:24;;;;;;;31.65;19.48;;;;;;;;;;4997922;28;20129;-59
2023/12/04 03:07:49;;;;;;;33.90;19.73;;;;;;;;;;5015562;28;20037;-59
2023/12/04 03:10:15;;;;;;;31.27;19.40;;;;;;;;;;4997916;28;20093;-59
2023/12/04 03:12:40;;;;;;;29.02;18.80;;;;;;;;;;5015292;28;20072;-59
2023/12/04 03:15:06;;;;;;;33.58;20.20;;;;;;;;;;5015334;28;20032;-59
2023/12/04 03:17:31;;;;;;;29.25;18.33;;;;;;;;;;5015260;28;20446;-59
2023/12/04 03:19:56;;;;;;;30.92;17.98;;;;;;;;;;5015507;28;20121;-59
2023/12/04 03:22:22;;;;;;;25.80;17.52;;;;;;;;;;5015441;28;20068;-59
2023/12/04 03:24:47;;;;;;;28.58;17.65;;;;;;;;;;5015748;28;20061;-59
2023/12/04 03:27:13;;;;;;;29.98;17.85;;;;;;;;;;5015047;28;20032;-59
2023/12/04 03:29:38;;;;;;;30.80;17.60;;;;;;;;;;5014964;28;20460;-59
2023/12/04 03:32:03;;;;;;;31.42;17.73;;;;;;;;;;5014948;28;20377;-59
2023/12/04 03:34:29;;;;;;;31.08;17.30;;;;;;;;;;4998019;28;20029;-59
2023/12/04 03:36:54;;;;;;;31.52;17.55;;;;;;;;;;5015395;28;20036;-59
2023/12/04 03:39:20;;;;;;;28.98;17.65;;;;;;;;;;5015151;28;20495;-59
2023/12/04 03:41:46;;;;;;;28.50;17.58;;;;;;;;;;5014819;28;20502;-59
2023/12/04 03:44:11;;;;;;;30.02;17.83;;;;;;;;;;5015059;28;20535;-59
2023/12/04 03:46:37;;;;;;;28.92;18.15;;;;;;;;;;5014694;28;20062;-60
2023/12/04 03:49:03;;;;;;;30.98;18.80;;;;;;;;;;5014659;28;20503;-59
2023/12/04 03:51:29;;;;;;;28.95;17.67;;;;;;;;;;4998242;28;20376;-61
2023/12/04 03:53:55;;;;;;;31.13;18.27;;;;;;;;;;4980785;28;20032;-61
2023/12/04 03:56:20;;;;;;;29.42;17.70;;;;;;;;;;5014746;28;20500;-63
2023/12/04 03:58:48;;;;;;;33.45;19.20;;;;;;;;;;5014880;28;20037;-60
2023/12/04 04:01:13;;;;;;;28.65;17.65;;;;;;;;;;5014781;28;20084;-60
2023/12/04 04:03:39;;;;;;;29.35;17.70;;;;;;;;;;4997171;28;20034;-60
2023/12/04 04:06:04;;;;;;;30.73;17.33;;;;;;;;;;4996936;28;20088;-60
2023/12/04 04:08:29;;;;;;;27.70;16.85;;;;;;;;;;5025581;23;20051;-60
2023/12/04 04:10:55;;;;;;;34.67;18.17;;;;;;;;;;5025275;23;20073;-62
2023/12/04 04:13:20;;;;;;;29.00;17.83;;;;;;;;;;5013358;28;20026;-63
2023/12/04 04:15:53;;;;;;;30.45;17.70;;;;;;;;;;5014635;28;20030;-62
2023/12/04 04:18:18;;;;;;;24.15;15.93;;;;;;;;;;5014491;28;20037;-62
2023/12/04 04:20:48;;;;;;;29.33;17.60;;;;;;;;;;5014375;28;20038;-63
2023/12/04 04:23:13;;;;;;;25.67;16.77;;;;;;;;;;5014144;28;20029;-63
2023/12/04 04:25:38;;;;;;;27.92;17.10;;;;;;;;;;5014736;28;20033;-63
2023/12/04 04:28:04;;;;;;;28.40;17.75;;;;;;;;;;5014559;28;20069;-63
2023/12/04 04:30:29;;;;;;;25.98;16.70;;;;;;;;;;5014830;28;20029;-63
2023/12/04 04:32:54;;;;;;;27.45;16.90;;;;;;;;;;5014060;28;20030;-63
2023/12/04 04:35:20;;;;;;;24.38;16.80;;;;;;;;;;5014253;28;20070;-63
2023/12/04 04:37:45;;;;;;;28.45;16.52;;;;;;;;;;5008203;28;20033;-63
2023/12/04 04:40:11;;;;;;;28.70;18.25;;;;;;;;;;4994163;28;20043;-62
2023/12/04 04:42:36;;;;;;;28.45;17.33;;;;;;;;;;4994512;28;20022;-62
2023/12/04 04:45:02;;;;;;;25.90;16.70;;;;;;;;;;4994800;28;20027;-62
2023/12/04 04:47:27;;;;;;;29.10;17.10;;;;;;;;;;4994558;28;20038;-62
2023/12/04 04:49:52;;;;;;;26.33;16.95;;;;;;;;;;4992647;28;20097;-62
2023/12/04 04:52:18;;;;;;;25.77;16.58;;;;;;;;;;4994360;28;20107;-62
2023/12/04 04:54:50;;;;;;;27.65;17.23;;;;;;;;;;4994712;28;20037;-62
2023/12/04 04:57:16;;;;;;;28.58;17.27;;;;;;;;;;4977111;28;20397;-62
2023/12/04 04:59:42;;;;;;;24.60;16.08;;;;;;;;;;4993010;28;20075;-63
2023/12/04 05:02:07;;;;;;;26.65;16.75;;;;;;;;;;4992991;28;20081;-63
2023/12/04 05:04:33;;;;;;;28.67;17.35;;;;;;;;;;4976081;28;20026;-63
2023/12/04 05:06:58;;;;;;;27.23;16.48;;;;;;;;;;4975774;28;20027;-62
2023/12/04 05:09:24;;;;;;;25.70;16.60;;;;;;;;;;4993140;28;20350;-62
2023/12/04 05:11:49;;;;;;;25.60;16.38;;;;;;;;;;4991241;28;20053;-63
2023/12/04 05:14:14;;;;;;;27.20;16.88;;;;;;;;;;4993513;28;20050;-62
2023/12/04 05:16:40;;;;;;;31.98;19.23;;;;;;;;;;4994206;28;20362;-62
2023/12/04 05:19:05;;;;;;;35.08;20.77;;;;;;;;;;4976618;28;20031;-62
2023/12/04 05:21:31;;;;;;;38.47;21.85;;;;;;;;;;4994056;28;20030;-62
2023/12/04 05:23:56;;;;;;;40.22;21.67;;;;;;;;;;4978130;28;20023;-62
2023/12/04 05:26:21;;;;;;;40.63;23.25;;;;;;;;;;4997327;28;20038;-62
2023/12/04 05:28:47;;;;;;;45.17;24.65;;;;;;;;;;4998109;28;20110;-62
2023/12/04 05:31:12;;;;;;;55.80;27.65;;;;;;;;;;4980292;28;20388;-62
2023/12/04 05:33:38;;;;;;;48.35;26.00;;;;;;;;;;4979712;28;20084;-62
2023/12/04 05:36:03;;;;;;;43.85;24.08;;;;;;;;;;4997085;28;20042;-63
2023/12/04 05:38:28;;;;;;;36.38;20.05;;;;;;;;;;4998106;28;20092;-63
2023/12/04 05:40:54;;;;;;;34.50;20.70;;;;;;;;;;4997548;28;20093;-63
2023/12/04 05:43:20;;;;;;;38.72;24.10;;;;;;;;;;4997720;28;20038;-63
2023/12/04 05:45:45;;;;;;;37.22;23.40;;;;;;;;;;4997305;28;20027;-63
2023/12/04 05:48:10;;;;;;;38.63;22.08;;;;;;;;;;4997337;28;20034;-63
2023/12/04 05:50:36;;;;;;;31.42;19.45;;;;;;;;;;4997577;28;20029;-63
2023/12/04 05:53:01;;;;;;;30.52;19.35;;;;;;;;;;4997252;28;20105;-63
2023/12/04 05:55:26;;;;;;;34.38;21.90;;;;;;;;;;4996882;28;20486;-63
2023/12/04 05:57:52;;;;;;;34.72;22.02;;;;;;;;;;4997441;28;20049;-63
2023/12/04 06:00:17;;;;;;;34.33;21.95;;;;;;;;;;4997112;28;20042;-63
2023/12/04 06:02:43;;;;;;;31.05;20.27;;;;;;;;;;4997086;28;20035;-63
2023/12/04 06:05:08;;;;;;;31.92;19.05;;;;;;;;;;4979911;28;20045;-62
2023/12/04 06:07:34;;;;;;;28.58;18.27;;;;;;;;;;4996931;28;20132;-63
2023/12/04 06:10:00;;;;;;;31.15;19.33;;;;;;;;;;4979117;28;20493;-64
2023/12/04 06:12:25;;;;;;;35.83;22.48;;;;;;;;;;4996662;28;20041;-64
2023/12/04 06:14:50;;;;;;;39.60;25.05;;;;;;;;;;4979623;28;20030;-64
2023/12/04 06:17:16;;;;;;;42.70;24.77;;;;;;;;;;5015076;23;20081;-59
2023/12/04 06:19:41;;;;;;;44.55;27.05;;;;;;;;;;5041603;23;20054;-59
2023/12/04 06:22:07;;;;;;;63.83;35.28;;;;;;;;;;5016325;28;20457;-59
2023/12/04 06:24:32;;;;;;;82.55;46.35;;;;;;;;;;5016718;28;20014;-59
2023/12/04 06:26:58;;;;;;;92.25;49.25;;;;;;;;;;5016355;28;20034;-59
2023/12/04 06:29:24;;;;;;;86.00;44.10;;;;;;;;;;4998201;28;20049;-59
2023/12/04 06:31:49;;;;;;;108.53;50.63;;;;;;;;;;5016054;28;20491;-59
2023/12/04 06:34:15;;;;;;;120.65;51.97;;;;;;;;;;5015505;28;20026;-59
2023/12/04 06:36:40;;;;;;;91.90;46.60;;;;;;;;;;5013444;28;20073;-59
2023/12/04 06:39:10;;;;;;;98.57;48.40;;;;;;;;;;5015158;28;20034;-59
2023/12/04 06:41:36;;;;;;;111.22;53.30;;;;;;;;;;5015200;28;20468;-59
2023/12/04 06:44:01;;;;;;;102.45;50.92;;;;;;;;;;4996505;28;20042;-59
2023/12/04 06:46:28;;;;;;;99.15;45.70;;;;;;;;;;5014862;28;20033;-59
2023/12/04 06:48:56;;;;;;;97.30;47.30;;;;;;;;;;5015244;28;20014;-59
2023/12/04 06:51:22;;;;;;;110.55;49.20;;;;;;;;;;5012800;28;20038;-59
2023/12/04 06:53:47;;;;;;;131.90;56.75;;;;;;;;;;5013597;28;20048;-59
2023/12/04 06:56:13;;;;;;;137.82;60.55;;;;;;;;;;5014156;28;20064;-59
2023/12/04 06:58:38;;;;;;;132.65;60.15;;;;;;;;;;5014156;28;20030;-59
2023/12/04 07:01:03;;;;;;;136.48;58.38;;;;;;;;;;5014076;28;20034;-59
2023/12/04 07:03:29;;;;;;;131.02;57.15;;;;;;;;;;5013703;28;20081;-59
2023/12/04 07:05:54;;;;;;;119.95;54.03;;;;;;;;;;5013794;28;20026;-59
2023/12/04 07:08:20;;;;;;;111.40;49.40;;;;;;;;;;4996205;28;20038;-59
2023/12/04 07:10:45;;;;;;;115.75;51.53;;;;;;;;;;5013829;28;20068;-59
2023/12/04 07:13:12;;;;;;;122.63;52.70;;;;;;;;;;5013838;28;20041;-59
2023/12/04 07:15:38;;;;;;;118.95;51.35;;;;;;;;;;5013669;28;20038;-59
2023/12/04 07:18:03;;;;;;;118.22;52.97;;;;;;;;;;5014534;28;20036;-59
2023/12/04 07:20:29;;;;;;;120.10;52.25;;;;;;;;;;5015477;28;20050;-59
2023/12/04 07:22:54;;;;;;;107.20;50.45;;;;;;;;;;5015189;28;20029;-59
2023/12/04 07:25:20;;;;;;;115.20;50.55;;;;;;;;;;5015417;28;20096;-59
2023/12/04 07:27:46;;;;;;;67.15;35.25;;;;;;;;;;4997539;28;20033;-59
2023/12/04 07:30:12;;;;;;;70.55;36.63;;;;;;;;;;5015248;28;20026;-59
2023/12/04 07:32:37;;;;;;;133.93;60.58;;;;;;;;;;5015533;28;20029;-59
2023/12/04 07:35:03;;;;;;;103.07;49.58;;;;;;;;;;5014928;28;20044;-59
2023/12/04 07:37:30;;;;;;;134.15;61.88;;;;;;;;;;5015198;28;20037;-59
2023/12/04 07:39:55;;;;;;;134.20;63.63;;;;;;;;;;5015388;28;20419;-59
2023/12/04 07:42:21;;;;;;;118.30;57.47;;;;;;;;;;5014839;28;20080;-59
2023/12/04 07:44:46;;;;;;;132.15;61.97;;;;;;;;;;5014807;28;20041;-59
2023/12/04 07:47:13;;;;;;;125.75;57.92;;;;;;;;;;5014728;28;20179;-59
2023/12/04 07:49:38;;;;;;;116.68;54.58;;;;;;;;;;5014977;28;20026;-59
2023/12/04 07:52:04;;;;;;;110.72;55.05;;;;;;;;;;5014650;28;20392;-59
2023/12/04 07:54:29;;;;;;;101.22;50.60;;;;;;;;;;5014614;28;20097;-59
2023/12/04 07:56:54;;;;;;;100.72;52.30;;;;;;;;;;5013560;28;20065;-59
2023/12/04 07:59:20;;;;;;;88.90;46.17;;;;;;;;;;5015379;28;20041;-59
2023/12/04 08:01:45;;;;;;;104.85;50.75;;;;;;;;;;5014929;28;20045;-59
2023/12/04 08:04:11;;;;;;;102.82;51.17;;;;;;;;;;5014488;28;20558;-59
2023/12/04 08:06:36;;;;;;;91.72;47.05;;;;;;;;;;5014873;28;20025;-59
2023/12/04 08:09:05;;;;;;;65.07;36.33;;;;;;;;;;5014644;28;20096;-59
2023/12/04 08:11:31;;;;;;;129.00;67.72;;;;;;;;;;5014370;28;20387;-59
2023/12/04 08:13:56;;;;;;;72.75;41.67;;;;;;;;;;5014298;28;20117;-59
2023/12/04 08:16:21;;;;;;;149.20;85.20;;;;;;;;;;5014539;28;20112;-59
2023/12/04 08:18:47;;;;;;;73.70;44.45;;;;;;;;;;5014537;28;20034;-59
2023/12/04 08:21:13;;;;;;;71.13;43.67;;;;;;;;;;5014163;28;20054;-59
2023/12/04 08:23:38;;;;;;;55.70;33.95;;;;;;;;;;5014164;28;20045;-59
2023/12/04 08:26:04;;;;;;;63.50;39.90;;;;;;;;;;5014043;28;20038;-59
2023/12/04 08:28:29;;;;;;;52.28;35.15;;;;;;;;;;5014120;28;20030;-59
2023/12/04 08:30:54;;;;;;;52.38;32.05;;;;;;;;;;5014569;28;20083;-59
2023/12/04 08:33:20;;;;;;;64.82;42.25;;;;;;;;;;5014063;28;20061;-59
2023/12/04 08:35:45;;;;;;;67.22;45.75;;;;;;;;;;5014552;28;20098;-59
2023/12/04 08:38:11;;;;;;;54.13;39.28;;;;;;;;;;5012806;28;20037;-59
2023/12/04 08:40:37;;;;;;;48.75;33.75;;;;;;;;;;5038374;23;20029;-59
2023/12/04 08:43:03;;;;;;;51.78;35.35;;;;;;;;;;5014203;28;20040;-59
2023/12/04 08:45:29;;;;;;;61.03;40.63;;;;;;;;;;5014428;28;20353;-59
2023/12/04 08:47:55;;;;;;;66.88;46.95;;;;;;;;;;5013789;28;20032;-59
2023/12/04 08:50:20;;;;;;;52.30;37.78;;;;;;;;;;4996466;28;20445;-59
2023/12/04 08:52:46;;;;;;;114.28;76.38;;;;;;;;;;5014009;28;20443;-59
2023/12/04 08:55:11;;;;;;;74.47;51.40;;;;;;;;;;5013822;28;20062;-59
2023/12/04 08:57:37;;;;;;;65.05;43.22;;;;;;;;;;5014360;28;20041;-59
2023/12/04 09:00:03;;;;;;;72.22;48.03;;;;;;;;;;5017703;28;20464;-59
2023/12/04 09:02:29;;;;;;;58.55;37.50;;;;;;;;;;5017821;28;20503;-59
2023/12/04 09:04:54;;;;;;;47.65;30.33;;;;;;;;;;5016665;28;20030;-59
2023/12/04 09:07:19;;;;;;;46.95;29.83;;;;;;;;;;5018208;28;20022;-59
2023/12/04 09:09:46;;;;;;;47.17;29.50;;;;;;;;;;5017754;28;20034;-59
2023/12/04 09:12:11;;;;;;;48.10;29.38;;;;;;;;;;5017929;28;20030;-59
2023/12/04 09:14:36;;;;;;;50.92;29.83;;;;;;;;;;5017568;28;20164;-59
2023/12/04 09:17:03;;;;;;;46.53;28.42;;;;;;;;;;5017604;28;20037;-59
2023/12/04 09:19:29;;;;;;;63.78;34.53;;;;;;;;;;5017806;28;20026;-59
2023/12/04 09:21:54;;;;;;;70.03;37.63;;;;;;;;;;5017520;28;20449;-59
2023/12/04 09:24:20;;;;;;;56.95;34.08;;;;;;;;;;4983600;28;20076;-59
2023/12/04 09:26:45;;;;;;;62.05;36.92;;;;;;;;;;5017313;28;20030;-59
2023/12/04 09:29:11;;;;;;;62.22;39.38;;;;;;;;;;4999872;28;20026;-59
2023/12/04 09:31:36;;;;;;;58.75;34.10;;;;;;;;;;4999719;28;20487;-59
2023/12/04 09:34:02;;;;;;;47.85;27.92;;;;;;;;;;5017759;28;20073;-59
2023/12/04 09:36:27;;;;;;;47.33;26.80;;;;;;;;;;5017083;28;20092;-59
2023/12/04 09:38:52;;;;;;;41.50;24.50;;;;;;;;;;4999858;28;20026;-59
2023/12/04 09:41:18;;;;;;;49.17;26.35;;;;;;;;;;5017102;28;20042;-59
2023/12/04 09:43:44;;;;;;;46.83;27.65;;;;;;;;;;4999602;28;20038;-59
2023/12/04 09:46:10;;;;;;;40.20;25.45;;;;;;;;;;5017217;28;20030;-59
2023/12/04 09:48:36;;;;;;;42.22;26.50;;;;;;;;;;4983244;28;20133;-59
2023/12/04 09:51:02;;;;;;;40.78;24.50;;;;;;;;;;4983141;28;20084;-59
2023/12/04 09:53:30;;;;;;;37.45;23.65;;;;;;;;;;5017188;28;20026;-59
2023/12/04 09:55:56;;;;;;;34.97;22.25;;;;;;;;;;5015611;28;20030;-59
2023/12/04 09:58:23;;;;;;;33.30;21.30;;;;;;;;;;5017046;28;20049;-59
2023/12/04 10:00:49;;;;;;;30.17;20.92;;;;;;;;;;5017033;28;20034;-59
2023/12/04 10:03:15;;;;;;;34.80;21.15;;;;;;;;;;5017001;28;20040;-59
2023/12/04 10:05:43;;;;;;;33.00;21.85;;;;;;;;;;5017207;28;20036;-59
2023/12/04 10:08:08;;;;;;;32.05;21.08;;;;;;;;;;5016102;28;20120;-59
2023/12/04 10:10:34;;;;;;;29.70;21.02;;;;;;;;;;5016797;28;20118;-59
2023/12/04 10:12:59;;;;;;;33.40;21.30;;;;;;;;;;4999208;28;20053;-59
2023/12/04 10:15:25;;;;;;;35.97;21.58;;;;;;;;;;5016508;28;20384;-59
2023/12/04 10:17:51;;;;;;;33.88;22.98;;;;;;;;;;5016712;28;20038;-59
2023/12/04 10:20:20;;;;;;;32.55;22.25;;;;;;;;;;5016410;28;20120;-59
2023/12/04 10:22:52;;;;;;;33.25;22.38;;;;;;;;;;4999158;28;20026;-59
2023/12/04 10:25:18;;;;;;;35.50;22.50;;;;;;;;;;5016596;28;20037;-59
2023/12/04 10:27:44;;;;;;;34.35;23.35;;;;;;;;;;5016779;28;20084;-59
2023/12/04 10:30:12;;;;;;;36.17;23.92;;;;;;;;;;5016501;28;20057;-59
2023/12/04 10:32:40;;;;;;;36.50;23.30;;;;;;;;;;5016186;28;20067;-59
2023/12/04 10:35:08;;;;;;;34.08;21.52;;;;;;;;;;4998935;28;20080;-59
2023/12/04 10:37:36;;;;;;;36.90;21.30;;;;;;;;;;5016327;28;20488;-59
2023/12/04 10:40:01;;;;;;;33.13;21.67;;;;;;;;;;5016009;28;20038;-59
2023/12/04 10:42:27;;;;;;;28.02;19.60;;;;;;;;;;5015917;28;20400;-59
2023/12/04 10:44:57;;;;;;;30.63;18.67;;;;;;;;;;5015935;28;20038;-59
2023/12/04 10:47:22;;;;;;;28.20;19.42;;;;;;;;;;4998423;28;20392;-59
2023/12/04 10:49:49;;;;;;;27.00;17.92;;;;;;;;;;4998412;28;20017;-59
2023/12/04 10:52:14;;;;;;;26.95;18.02;;;;;;;;;;5016110;28;20025;-59
2023/12/04 10:54:39;;;;;;;23.42;17.45;;;;;;;;;;5015772;28;20022;-59
2023/12/04 10:57:05;;;;;;;26.35;17.83;;;;;;;;;;5014488;28;20041;-59
2023/12/04 10:59:32;;;;;;;23.05;16.73;;;;;;;;;;5015964;28;20104;-63
2023/12/04 11:02:01;;;;;;;20.95;13.93;;;;;;;;;;4998115;28;20107;-63
2023/12/04 11:04:27;;;;;;;26.35;16.63;;;;;;;;;;5015880;28;20038;-63
2023/12/04 11:06:54;;;;;;;26.00;17.55;;;;;;;;;;5015732;28;20113;-59
2023/12/04 11:09:21;;;;;;;26.95;17.10;;;;;;;;;;5015433;28;20030;-59
2023/12/04 11:11:51;;;;;;;25.00;14.57;;;;;;;;;;5015744;28;20022;-59
2023/12/04 11:14:18;;;;;;;15.57;10.57;;;;;;;;;;4997892;28;20026;-63
2023/12/04 11:16:46;;;;;;;27.83;15.73;;;;;;;;;;5015371;28;20034;-63
2023/12/04 11:19:25;;;;;;;35.40;20.05;;;;;;;;;;5015808;28;20112;-63
2023/12/04 11:21:51;;;;;;;23.40;14.43;;;;;;;;;;5015281;28;20044;-63
2023/12/04 11:24:18;;;;;;;15.60;12.13;;;;;;;;;;5015198;28;20108;-63
2023/12/04 11:26:44;;;;;;;17.35;12.05;;;;;;;;;;5015098;28;20036;-63
2023/12/04 11:29:11;;;;;;;23.58;14.02;;;;;;;;;;5015389;28;20109;-63
2023/12/04 11:31:37;;;;;;;10.90;7.97;;;;;;;;;;5015093;28;20058;-63
2023/12/04 11:34:03;;;;;;;11.65;8.85;;;;;;;;;;5015020;28;20033;-63
2023/12/04 11:36:29;;;;;;;13.50;9.57;;;;;;;;;;5015473;28;20101;-63
2023/12/04 11:38:56;;;;;;;13.43;9.98;;;;;;;;;;5014947;28;20480;-63
2023/12/04 11:41:25;;;;;;;14.40;10.52;;;;;;;;;;5014915;28;20492;-63
2023/12/04 11:43:52;;;;;;;15.23;9.32;;;;;;;;;;5015136;28;20357;-63
2023/12/04 11:46:23;;;;;;;11.32;7.97;;;;;;;;;;5015022;28;20045;-63
2023/12/04 11:48:48;;;;;;;10.18;8.00;;;;;;;;;;5014775;28;20026;-63
2023/12/04 11:51:15;;;;;;;11.40;8.45;;;;;;;;;;5015282;28;20014;-63
2023/12/04 11:53:41;;;;;;;11.63;9.15;;;;;;;;;;5014954;28;20042;-63
2023/12/04 11:56:10;;;;;;;12.07;8.82;;;;;;;;;;5014871;28;20092;-63
2023/12/04 11:58:41;;;;;;;10.50;7.90;;;;;;;;;;5015169;28;20018;-63
2023/12/04 12:01:06;;;;;;;8.13;6.68;;;;;;;;;;5015099;28;20285;-63
2023/12/04 12:03:32;;;;;;;10.32;7.38;;;;;;;;;;5014807;28;20056;-63
2023/12/04 12:05:58;;;;;;;8.32;7.47;;;;;;;;;;5014411;28;20372;-63
2023/12/04 12:08:23;;;;;;;7.93;7.13;;;;;;;;;;5014378;28;20080;-63
2023/12/04 12:10:49;;;;;;;8.52;6.95;;;;;;;;;;5014689;28;20022;-63
2023/12/04 12:13:15;;;;;;;7.25;6.45;;;;;;;;;;5014918;28;20349;-63
2023/12/04 12:15:41;;;;;;;8.75;7.07;;;;;;;;;;5014860;28;20038;-63
2023/12/04 12:18:06;;;;;;;9.00;7.38;;;;;;;;;;4996658;28;20034;-63
2023/12/04 12:20:31;;;;;;;10.63;8.05;;;;;;;;;;5014539;28;20022;-63
2023/12/04 12:22:57;;;;;;;9.95;7.72;;;;;;;;;;5014301;28;20069;-63
2023/12/04 12:25:23;;;;;;;9.93;8.02;;;;;;;;;;5014154;28;20064;-63
2023/12/04 12:27:50;;;;;;;8.25;7.43;;;;;;;;;;5014341;28;20033;-63
2023/12/04 12:30:15;;;;;;;11.23;9.20;;;;;;;;;;5012842;28;20041;-63
2023/12/04 12:32:41;;;;;;;9.85;7.85;;;;;;;;;;5013687;28;20026;-63
2023/12/04 12:35:08;;;;;;;11.48;8.20;;;;;;;;;;5014375;28;20037;-63
2023/12/04 12:37:34;;;;;;;11.35;9.07;;;;;;;;;;5014283;28;20476;-63
2023/12/04 12:40:00;;;;;;;12.13;9.30;;;;;;;;;;5013990;28;20060;-63
2023/12/04 12:42:26;;;;;;;13.00;9.57;;;;;;;;;;5013932;28;20050;-63
2023/12/04 12:44:55;;;;;;;27.98;16.48;;;;;;;;;;5014236;28;20038;-63
2023/12/04 12:47:22;;;;;;;26.92;16.40;;;;;;;;;;5012773;28;20026;-63
2023/12/04 12:49:48;;;;;;;16.67;12.10;;;;;;;;;;5014253;28;20064;-63
2023/12/04 12:52:14;;;;;;;13.00;9.52;;;;;;;;;;4996613;28;20057;-63
2023/12/04 12:54:43;;;;;;;14.02;10.25;;;;;;;;;;5013872;28;20036;-63
2023/12/04 12:57:09;;;;;;;18.17;12.68;;;;;;;;;;4996595;28;20038;-63
2023/12/04 12:59:35;;;;;;;23.77;16.20;;;;;;;;;;4995678;28;20452;-63
2023/12/04 13:02:00;;;;;;;32.45;20.60;;;;;;;;;;5014046;28;20125;-63
2023/12/04 13:04:26;;;;;;;40.20;23.42;;;;;;;;;;5014056;28;20061;-63
2023/12/04 13:06:52;;;;;;;30.83;18.25;;;;;;;;;;5013925;28;20040;-63
2023/12/04 13:09:19;;;;;;;19.13;14.45;;;;;;;;;;5014293;28;20030;-63
2023/12/04 13:11:45;;;;;;;11.57;8.90;;;;;;;;;;5012481;28;20491;-63
2023/12/04 13:14:10;;;;;;;7.38;6.68;;;;;;;;;;4996099;28;20014;-63
2023/12/04 13:16:35;;;;;;;9.65;7.90;;;;;;;;;;5013628;28;20506;-63
2023/12/04 13:19:01;;;;;;;10.00;8.20;;;;;;;;;;5013606;28;20556;-63
2023/12/04 13:21:27;;;;;;;13.25;9.32;;;;;;;;;;4995996;28;20100;-59
2023/12/04 13:23:52;;;;;;;17.30;11.88;;;;;;;;;;5013612;28;20030;-59
2023/12/04 13:26:18;;;;;;;15.45;11.90;;;;;;;;;;5013729;28;20026;-59
2023/12/04 13:28:43;;;;;;;9.98;8.52;;;;;;;;;;5013583;28;20399;-59
2023/12/04 13:31:09;;;;;;;10.45;8.68;;;;;;;;;;5013779;28;20064;-59
2023/12/04 13:33:34;;;;;;;9.55;8.63;;;;;;;;;;5014110;28;20117;-59
2023/12/04 13:35:59;;;;;;;9.95;8.90;;;;;;;;;;5013402;28;20032;-59
2023/12/04 13:38:25;;;;;;;14.70;13.20;;;;;;;;;;4996423;28;20100;-59
2023/12/04 13:40:59;;;;;;;14.05;11.82;;;;;;;;;;5013241;28;20404;-59
2023/12/04 13:46:10;;;;;;;12.32;9.88;;;;;;;;;;5016170;28;20408;-59
2023/12/04 13:48:35;;;;;;;12.15;9.73;;;;;;;;;;5016063;28;20027;-59
2023/12/04 13:51:00;;;;;;;12.82;11.43;;;;;;;;;;5016371;28;20033;-59
2023/12/04 13:53:30;;;;;;;13.25;10.88;;;;;;;;;;4998462;28;20029;-59
2023/12/04 13:58:42;;;;;;;21.08;11.63;;;;;;;;;;5015832;28;20061;-59
2023/12/04 14:01:13;;;;;;;31.65;15.13;;;;;;;;;;5016024;28;20038;-58
2023/12/04 14:03:42;;;;;;;33.30;15.93;;;;;;;;;;5015720;28;20036;-58
2023/12/04 14:06:08;;;;;;;29.55;15.98;;;;;;;;;;5014551;28;20416;-58
2023/12/04 14:08:33;;;;;;;30.08;17.17;;;;;;;;;;5015598;28;20030;-58
2023/12/04 14:10:58;;;;;;;47.90;23.35;;;;;;;;;;5015866;28;20396;-58
2023/12/04 14:13:24;;;;;;;60.60;31.70;;;;;;;;;;5016448;28;20091;-59
2023/12/04 14:15:49;;;;;;;60.65;34.15;;;;;;;;;;5015963;28;20057;-59